ITHETF43 Weather Reports


time (UTC)temp
F
wind
direction
speed
knots
gust
knots
rain 1hr
in
rain 24hr
in
rain mn
in
humidity
%
barometer
mb
20260506123059 54 355 3.5 8.7 0.00 0.00 0.00 71 1013.0
20260506121608 55 72 1.7 8.7 0.00 0.00 0.00 67 1012.9
20260506120054 55 5 2.6 8.7 0.00 0.00 0.00 69 1012.9
20260506114551 55 28 3.5 8.7 0.00 0.00 0.00 68 1012.8
20260506113050 55 351 3.5 10.4 0.00 0.00 0.00 68 1012.8
20260506111547 56 38 3.5 9.6 0.00 0.00 0.00 67 1012.8
20260506104551 54 47 3.5 8.7 0.00 0.00 0.00 72 1012.8
20260506103051 52 71 2.6 13.0 0.00 0.00 0.00 80 1012.8
20260506101613 51 27 3.5 9.6 0.00 0.00 0.00 83 1012.8
20260506100051 50 11 2.6 7.8 0.00 0.00 0.00 85 1012.8
20260506094553 51 45 3.5 8.7 0.00 0.00 0.00 87 1012.8
20260506093046 51 22 3.5 7.8 0.00 0.00 0.00 88 1012.8
20260506091544 50 21 0.9 5.2 0.00 0.00 0.00 86 1012.8
20260506084551 50 17 3.5 7.8 0.00 0.00 0.00 86 1012.5
20260506083043 49 18 2.6 8.7 0.00 0.00 0.00 85 1012.5
20260506081552 50 16 3.5 8.7 0.00 0.00 0.00 82 1012.6
20260506073045 50 22 1.7 8.7 0.00 0.00 0.00 81 1012.4
20260506071544 49 360 1.7 8.7 0.00 0.00 0.00 83 1012.3
20260506061552 43 19 1.7 4.3 0.00 0.00 0.00 92 1012.2
20260506050104 41 360 0.0 4.3 0.00 0.00 0.00 90 1012.2
20260506044546 41 360 0.9 5.2 0.00 0.00 0.00 90 1012.1
20260506043044 41 360 0.9 5.2 0.00 0.00 0.00 89 1012.1
20260506041602 42 23 0.9 4.3 0.00 0.00 0.00 88 1012.1
20260506040052 42 355 0.9 5.2 0.00 0.00 0.00 88 1012.2
20260506034552 42 360 0.9 3.5 0.00 0.00 0.00 87 1012.2
20260506033047 43 24 0.0 3.5 0.00 0.00 0.00 86 1012.3
20260506031545 43 355 0.0 3.5 0.00 0.00 0.00 86 1012.5
20260506030043 43 11 0.9 3.5 0.00 0.00 0.00 86 1012.6
20260506024543 43 13 0.9 3.5 0.00 0.00 0.00 85 1012.7
20260506023102 44 25 0.9 2.6 0.00 0.00 0.00 85 1012.7
20260506021548 44 0 0.9 3.5 0.00 0.00 0.00 85 1012.8
20260506020051 45 32 0.9 3.5 0.00 0.00 0.00 84 1012.9
20260506014544 45 44 0.9 4.3 0.00 0.00 0.00 84 1013.0
20260506013056 46 36 0.9 4.3 0.00 0.00 0.00 83 1012.9
20260506011547 46 55 0.9 3.5 0.00 0.00 0.00 82 1013.0
20260506010040 47 0 1.7 7.0 0.00 0.00 0.00 81 1013.1
20260506004546 47 45 1.7 5.2 0.00 0.00 0.00 81 1013.2
20260506003045 48 34 1.7 7.0 0.00 0.00 0.00 80 1013.1
20260506001553 48 40 1.7 5.2 0.00 0.00 0.00 80 1013.1
20260506000044 48 59 2.6 7.8 0.00 0.00 0.00 80 1013.2
20260505234543 49 27 1.7 5.2 0.00 0.00 0.00 80 1013.2
20260505233054 49 35 3.5 7.8 0.00 0.00 0.00 80 1013.3
20260505231549 49 39 1.7 8.7 0.00 0.00 0.00 81 1013.4
20260505230119 49 352 2.6 7.8 0.00 0.00 0.00 82 1013.5
20260505224548 49 48 1.7 7.0 0.00 0.00 0.00 82 1013.6
20260505223050 50 355 1.7 7.0 0.00 0.00 0.00 82 1013.6
20260505221556 50 57 3.5 8.7 0.00 0.00 0.00 82 1013.6
20260505220056 50 340 1.7 8.7 0.00 0.00 0.00 82 1013.6
20260505214551 50 30 2.6 7.8 0.00 0.00 0.00 82 1013.6
20260505213045 50 19 1.7 4.3 0.00 0.00 0.00 82 1013.6
20260505211600 50 49 2.6 8.7 0.00 0.00 0.00 81 1013.7
20260505210043 50 71 2.6 8.7 0.00 0.00 0.00 81 1013.6
20260505204555 50 31 2.6 7.0 0.00 0.00 0.00 80 1013.5
20260505203051 50 355 1.7 6.1 0.00 0.00 0.00 80 1013.5
20260505201549 51 15 1.7 4.3 0.00 0.00 0.00 79 1013.4
20260505200048 51 345 1.7 4.3 0.00 0.00 0.00 77 1013.4
20260505194554 52 36 2.6 7.0 0.00 0.00 0.00 76 1013.2
20260505193101 52 73 2.6 7.0 0.00 0.00 0.00 75 1013.1
20260505191554 53 81 1.7 9.6 0.00 0.00 0.00 74 1012.8
20260505190049 53 55 2.6 7.8 0.00 0.00 0.00 72 1012.7
20260505184549 54 29 2.6 8.7 0.00 0.00 0.00 70 1012.8
20260505183044 55 43 0.9 7.0 0.00 0.00 0.00 69 1012.5
20260505181555 55 44 0.9 3.5 0.00 0.00 0.00 70 1012.5
20260505180050 56 119 0.9 4.3 0.00 0.00 0.00 69 1012.4
20260505174549 56 17 0.9 5.2 0.00 0.00 0.00 68 1012.3
20260505173044 57 355 2.6 7.8 0.00 0.00 0.00 69 1012.3
20260505171552 57 5 0.9 7.0 0.00 0.00 0.00 69 1012.2
20260505170050 57 78 1.7 7.8 0.00 0.00 0.00 69 1012.3
20260505164551 57 45 0.9 7.0 0.00 0.00 0.00 69 1012.2
20260505163051 57 46 1.7 7.0 0.00 0.00 0.00 69 1012.2
20260505161547 57 24 1.7 5.2 0.00 0.00 0.00 69 1012.1
20260505153053 60 355 1.7 5.2 0.00 0.00 0.00 67 1012.1
20260505151549 61 41 3.5 8.7 0.00 0.00 0.00 64 1012.1
20260505124552 65 28 1.7 5.2 0.00 0.00 0.00 47 1012.0